Time;durP1;ratioP1;P1;durP2;ratioP2;P2;SDS_P1;SDS_P2;PMS_P1;PMS_P2;Temp;Humidity;BMP_temperature;BMP_pressure;BME280_temperature;BME280_humidity;BME280_pressure;Samples;Min_cycle;Max_cycle;Signal;HPM_P1;HPM_P2
2022/03/03 00:00:06;;;;;;;3.00;2.70;;;25.80;45.50;;;;;;5053431;28;20441;-86
2022/03/03 00:02:33;;;;;;;4.27;3.97;;;25.80;45.50;;;;;;5053176;28;20925;-86
2022/03/03 00:05:00;;;;;;;4.37;3.97;;;25.80;45.50;;;;;;5053127;28;20442;-87
2022/03/03 00:07:26;;;;;;;3.30;3.00;;;25.80;45.60;;;;;;5053155;28;20442;-86
2022/03/03 00:09:53;;;;;;;3.17;2.87;;;25.70;45.50;;;;;;5053030;28;20446;-87
2022/03/03 00:12:20;;;;;;;3.20;3.00;;;25.70;45.40;;;;;;5053143;28;20445;-87
2022/03/03 00:14:48;;;;;;;3.37;3.07;;;25.70;45.50;;;;;;5053043;28;20851;-87
2022/03/03 00:17:15;;;;;;;3.53;3.30;;;25.70;45.50;;;;;;5053117;28;20434;-87
2022/03/03 00:19:42;;;;;;;3.63;3.37;;;25.70;45.50;;;;;;5052298;28;20973;-87
2022/03/03 00:22:09;;;;;;;3.10;2.90;;;25.70;45.50;;;;;;5052974;28;20815;-87
2022/03/03 00:24:36;;;;;;;3.43;3.10;;;25.70;45.50;;;;;;5053134;28;20438;-87
2022/03/03 00:27:05;;;;;;;4.20;3.40;;;25.70;45.50;;;;;;5053062;28;20797;-87
2022/03/03 00:29:32;;;;;;;3.67;3.27;;;25.70;45.50;;;;;;5052936;28;20457;-86
2022/03/03 00:32:00;;;;;;;3.50;3.20;;;25.70;45.50;;;;;;5052981;28;20801;-86
2022/03/03 00:34:26;;;;;;;3.87;3.60;;;25.70;45.50;;;;;;5052972;28;20507;-86
2022/03/03 00:36:53;;;;;;;3.67;3.43;;;25.70;45.50;;;;;;5052837;28;20445;-87
2022/03/03 00:39:20;;;;;;;4.00;3.60;;;25.70;45.50;;;;;;5053044;28;20446;-87
2022/03/03 00:41:47;;;;;;;3.70;3.13;;;25.70;45.50;;;;;;5052947;28;20433;-87
2022/03/03 00:44:14;;;;;;;3.23;2.97;;;25.70;45.50;;;;;;5052779;28;20943;-86
2022/03/03 00:46:41;;;;;;;3.10;2.90;;;25.60;45.50;;;;;;5052744;28;20445;-86
2022/03/03 00:49:09;;;;;;;3.03;2.80;;;25.60;45.50;;;;;;5052570;28;20453;-87
2022/03/03 00:51:36;;;;;;;3.17;2.80;;;25.60;45.50;;;;;;5052414;28;20560;-87
2022/03/03 00:54:03;;;;;;;2.80;2.60;;;25.60;45.50;;;;;;5052608;28;20980;-86
2022/03/03 00:56:30;;;;;;;3.73;3.43;;;25.60;45.50;;;;;;5052625;28;20448;-86
2022/03/03 00:58:57;;;;;;;3.40;3.17;;;25.60;45.50;;;;;;5052551;28;20916;-86
2022/03/03 01:01:23;;;;;;;3.77;3.47;;;25.70;45.50;;;;;;5052564;28;20449;-86
2022/03/03 01:03:50;;;;;;;4.43;4.10;;;25.60;45.50;;;;;;5052689;28;20438;-87
2022/03/03 01:06:18;;;;;;;3.50;3.30;;;25.60;45.50;;;;;;5052434;28;20449;-86
2022/03/03 01:08:45;;;;;;;4.17;3.80;;;25.60;45.50;;;;;;5052599;28;20964;-86
2022/03/03 01:11:11;;;;;;;3.77;3.47;;;25.60;45.50;;;;;;5052559;28;20457;-86
2022/03/03 01:13:38;;;;;;;3.67;3.37;;;25.60;45.50;;;;;;5052384;28;20836;-86
2022/03/03 01:16:05;;;;;;;2.90;2.70;;;25.60;45.50;;;;;;5052696;28;20433;-86
2022/03/03 01:18:32;;;;;;;3.97;3.27;;;25.60;46.10;;;;;;5052407;28;20454;-86
2022/03/03 01:20:59;;;;;;;3.80;3.50;;;25.60;45.50;;;;;;5052459;28;20445;-86
2022/03/03 01:23:27;;;;;;;3.87;3.57;;;25.60;45.50;;;;;;5052516;28;20449;-88
2022/03/03 01:25:54;;;;;;;3.50;3.30;;;25.50;45.40;;;;;;5052492;28;20441;-87
2022/03/03 01:28:21;;;;;;;3.50;3.20;;;25.60;45.40;;;;;;5052368;28;20446;-87
2022/03/03 01:30:48;;;;;;;3.07;2.87;;;25.50;45.40;;;;;;5052386;28;20438;-87
2022/03/03 01:33:15;;;;;;;3.40;3.10;;;25.50;45.30;;;;;;5056079;28;20434;-87
2022/03/03 01:35:42;;;;;;;3.37;3.17;;;25.70;45.50;;;;;;5055803;28;21002;-86
2022/03/03 01:38:09;;;;;;;3.37;3.10;;;25.60;45.40;;;;;;5055897;28;20453;-87
2022/03/03 01:40:38;;;;;;;3.30;3.10;;;25.50;45.30;;;;;;5055936;28;20495;-87
2022/03/03 01:43:05;;;;;;;3.33;2.97;;;25.50;45.30;;;;;;5055832;28;20445;-87
2022/03/03 01:45:32;;;;;;;3.80;3.50;;;25.50;45.30;;;;;;5055903;28;20438;-87
2022/03/03 01:47:59;;;;;;;3.93;3.63;;;25.50;45.30;;;;;;5055527;28;20461;-86
2022/03/03 01:50:26;;;;;;;2.87;2.67;;;25.60;45.40;;;;;;5055482;28;20508;-87
2022/03/03 01:52:53;;;;;;;3.30;3.10;;;25.50;45.30;;;;;;5055707;28;20442;-87
2022/03/03 01:55:19;;;;;;;3.43;3.13;;;25.50;45.30;;;;;;5055365;28;20991;-86
2022/03/03 01:57:50;;;;;;;3.53;3.23;;;25.50;45.30;;;;;;5055644;28;20434;-87
2022/03/03 02:00:18;;;;;;;3.70;3.50;;;25.50;45.30;;;;;;5055359;28;20785;-86
2022/03/03 02:02:46;;;;;;;3.73;3.47;;;25.50;45.30;;;;;;5055385;28;20444;-86
2022/03/03 02:05:12;;;;;;;3.50;3.20;;;25.50;45.30;;;;;;5055470;28;20924;-86
2022/03/03 02:07:40;;;;;;;3.13;2.93;;;25.50;45.30;;;;;;5055070;28;20449;-86
2022/03/03 02:10:08;;;;;;;3.80;3.53;;;25.50;45.30;;;;;;5055626;28;20931;-87
2022/03/03 02:12:35;;;;;;;3.57;3.37;;;25.40;45.30;;;;;;5055170;28;20446;-87
2022/03/03 02:15:05;;;;;;;2.73;2.53;;;25.50;45.30;;;;;;5055110;28;20572;-86
2022/03/03 02:17:33;;;;;;;3.53;3.23;;;25.50;45.30;;;;;;5055060;28;20517;-86
2022/03/03 02:19:59;;;;;;;3.73;3.43;;;25.40;45.20;;;;;;5055090;28;20446;-87
2022/03/03 02:22:27;;;;;;;3.73;3.50;;;25.40;45.20;;;;;;5055020;28;20445;-86
2022/03/03 02:24:55;;;;;;;3.60;3.30;;;25.50;45.30;;;;;;5055005;28;20525;-87
2022/03/03 02:27:22;;;;;;;3.17;2.97;;;25.40;45.30;;;;;;5054933;28;20434;-86
2022/03/03 02:29:51;;;;;;;3.20;3.00;;;25.40;45.20;;;;;;5054969;28;20429;-86
2022/03/03 02:32:18;;;;;;;3.70;3.50;;;25.40;45.20;;;;;;5054865;28;20532;-86
2022/03/03 02:34:49;;;;;;;3.37;3.17;;;25.40;45.10;;;;;;5054863;28;20543;-87
2022/03/03 02:37:16;;;;;;;3.53;3.23;;;25.40;45.20;;;;;;5054814;28;20442;-87
2022/03/03 02:39:44;;;;;;;2.90;2.70;;;25.40;45.10;;;;;;5054739;28;20445;-86
2022/03/03 02:42:11;;;;;;;3.77;3.57;;;25.40;45.20;;;;;;5054675;28;20464;-88
2022/03/03 02:44:37;;;;;;;3.37;3.13;;;25.40;45.20;;;;;;5054091;28;20441;-87
2022/03/03 02:47:05;;;;;;;3.90;3.60;;;25.40;45.10;;;;;;5054445;28;20438;-86
2022/03/03 02:49:31;;;;;;;3.37;3.03;;;25.40;45.20;;;;;;5054412;28;20462;-87
2022/03/03 02:51:58;;;;;;;3.70;3.50;;;25.40;45.10;;;;;;5053475;28;20477;-87
2022/03/03 02:54:25;;;;;;;4.00;3.17;;;25.40;45.10;;;;;;5053429;28;20489;-86
2022/03/03 02:59:37;;;;;;;3.80;3.50;;;25.40;45.20;;;;;;5053599;28;20418;-86
2022/03/03 03:02:04;;;;;;;3.60;3.33;;;25.30;45.10;;;;;;5053562;28;20438;-86
2022/03/03 03:04:31;;;;;;;3.33;3.03;;;25.30;45.10;;;;;;5053406;28;20485;-86
2022/03/03 03:06:57;;;;;;;3.10;2.90;;;25.30;45.10;;;;;;5053496;28;20441;-86
2022/03/03 03:09:24;;;;;;;3.30;3.10;;;25.30;45.10;;;;;;5053227;28;20936;-86
2022/03/03 03:11:53;;;;;;;3.30;3.10;;;25.30;45.10;;;;;;5053269;28;20445;-87
2022/03/03 03:14:19;;;;;;;3.13;2.83;;;25.40;45.10;;;;;;5053362;28;20477;-86
2022/03/03 03:16:46;;;;;;;3.93;3.63;;;25.30;45.10;;;;;;5053052;28;20442;-86
2022/03/03 03:19:13;;;;;;;3.70;3.50;;;25.30;45.10;;;;;;5053144;28;20465;-86
2022/03/03 03:21:40;;;;;;;3.30;3.10;;;25.30;45.10;;;;;;5053121;28;20453;-86
2022/03/03 03:24:07;;;;;;;4.10;3.80;;;25.30;45.10;;;;;;5053004;28;20513;-86
2022/03/03 03:26:33;;;;;;;3.40;3.20;;;25.30;44.90;;;;;;5052978;28;20438;-86
2022/03/03 03:29:01;;;;;;;3.60;3.30;;;25.40;45.00;;;;;;5053009;28;20460;-86
2022/03/03 03:31:28;;;;;;;3.00;2.80;;;25.40;45.00;;;;;;5052992;28;20792;-87
2022/03/03 03:33:55;;;;;;;4.00;3.70;;;25.40;45.00;;;;;;5052864;28;20445;-86
2022/03/03 03:36:21;;;;;;;3.87;3.57;;;25.40;45.00;;;;;;5052771;28;20504;-86
2022/03/03 03:38:48;;;;;;;3.03;2.83;;;25.40;44.90;;;;;;5052783;28;20450;-87
2022/03/03 03:41:15;;;;;;;3.00;2.80;;;25.40;44.90;;;;;;5052938;28;20441;-86
2022/03/03 03:43:42;;;;;;;3.10;2.90;;;25.40;44.90;;;;;;5052863;28;20800;-87
2022/03/03 03:46:10;;;;;;;3.50;3.30;;;25.40;44.80;;;;;;5052618;28;20438;-87
2022/03/03 03:48:37;;;;;;;3.60;3.40;;;25.40;45.30;;;;;;5052607;28;20454;-86
2022/03/03 03:51:04;;;;;;;4.00;3.50;;;25.40;44.80;;;;;;5016067;28;1047482;-87
2022/03/03 03:53:30;;;;;;;3.77;3.47;;;25.40;44.70;;;;;;5053282;28;20458;-86
2022/03/03 03:55:57;;;;;;;4.07;3.77;;;25.40;44.70;;;;;;5052396;28;20485;-86
2022/03/03 03:58:24;;;;;;;3.83;3.53;;;25.40;44.70;;;;;;5053319;28;20803;-86
2022/03/03 04:00:51;;;;;;;3.43;3.17;;;25.40;44.70;;;;;;5053334;28;20441;-86
2022/03/03 04:03:20;;;;;;;3.00;2.80;;;25.40;44.70;;;;;;5053165;28;20438;-86
2022/03/03 04:05:46;;;;;;;3.30;3.10;;;25.40;44.70;;;;;;5053187;28;20464;-87
2022/03/03 04:08:14;;;;;;;3.50;3.20;;;25.50;44.70;;;;;;5053196;28;20445;-86
2022/03/03 04:10:40;;;;;;;3.23;3.03;;;25.50;44.70;;;;;;5053125;28;20774;-87
2022/03/03 04:13:07;;;;;;;3.73;3.50;;;25.50;44.70;;;;;;5053126;28;20449;-87
2022/03/03 04:15:34;;;;;;;3.60;3.30;;;25.40;44.60;;;;;;5053029;28;20501;-87
2022/03/03 04:18:01;;;;;;;3.47;3.27;;;25.40;44.50;;;;;;5053085;28;20500;-87
2022/03/03 04:20:29;;;;;;;3.83;3.50;;;25.50;44.60;;;;;;5053124;28;20438;-87
2022/03/03 04:22:56;;;;;;;3.10;2.90;;;25.40;44.60;;;;;;5053091;28;20443;-86
2022/03/03 04:25:22;;;;;;;3.60;3.23;;;25.40;44.60;;;;;;5052971;28;20460;-87
2022/03/03 04:27:49;;;;;;;4.73;4.40;;;25.50;44.50;;;;;;5053010;28;20761;-87
2022/03/03 04:30:16;;;;;;;3.80;3.50;;;25.40;44.40;;;;;;5053016;28;20437;-87
2022/03/03 04:32:43;;;;;;;3.00;2.80;;;25.50;44.60;;;;;;5052934;28;20796;-87
2022/03/03 04:35:10;;;;;;;3.93;3.63;;;25.50;44.60;;;;;;5052736;28;20493;-86
2022/03/03 04:37:39;;;;;;;3.03;2.83;;;25.40;44.50;;;;;;5052996;28;20453;-87
2022/03/03 04:40:07;;;;;;;3.73;3.43;;;25.60;44.60;;;;;;5052892;28;20453;-87
2022/03/03 04:42:34;;;;;;;3.67;3.37;;;25.40;44.50;;;;;;5052475;28;20442;-87
2022/03/03 04:45:01;;;;;;;3.87;3.67;;;25.40;44.50;;;;;;5052902;28;20452;-86
2022/03/03 04:47:28;;;;;;;3.90;3.60;;;25.40;44.50;;;;;;5052579;28;20450;-87
2022/03/03 04:49:54;;;;;;;3.80;3.10;;;25.40;44.50;;;;;;5052802;28;20453;-87
2022/03/03 04:52:21;;;;;;;3.33;3.13;;;25.40;44.40;;;;;;5052497;28;20477;-87
2022/03/03 04:54:49;;;;;;;3.27;3.07;;;25.50;44.50;;;;;;5052723;28;20477;-87
2022/03/03 04:57:17;;;;;;;3.60;3.40;;;25.50;44.50;;;;;;5044055;28;20533;-88
2022/03/03 04:59:44;;;;;;;3.57;3.27;;;25.40;44.40;;;;;;5043493;28;20440;-88
2022/03/03 05:02:10;;;;;;;3.30;3.10;;;25.50;44.40;;;;;;5045754;28;21005;-88
2022/03/03 05:04:37;;;;;;;3.77;3.47;;;25.50;44.30;;;;;;5044008;28;20437;-88
2022/03/03 05:07:04;;;;;;;3.07;2.87;;;25.50;44.40;;;;;;5048595;28;20516;-87
2022/03/03 05:09:32;;;;;;;3.87;3.57;;;25.50;44.30;;;;;;5042914;28;20519;-88
2022/03/03 05:12:00;;;;;;;3.13;2.93;;;25.50;44.30;;;;;;5047680;28;20443;-87
2022/03/03 05:14:27;;;;;;;3.77;3.47;;;25.50;44.30;;;;;;5051083;28;20434;-87
2022/03/03 05:16:54;;;;;;;3.40;3.20;;;25.60;44.30;;;;;;5039125;28;20510;-88
2022/03/03 05:19:21;;;;;;;3.40;3.20;;;25.50;44.30;;;;;;5048932;28;20874;-87
2022/03/03 05:21:48;;;;;;;3.60;3.40;;;25.60;44.30;;;;;;5050438;28;20509;-87
2022/03/03 05:24:15;;;;;;;3.10;2.90;;;25.50;44.20;;;;;;5041891;28;20482;-87
2022/03/03 05:26:42;;;;;;;3.30;3.10;;;25.50;44.10;;;;;;5046820;28;20440;-88
2022/03/03 05:29:10;;;;;;;3.00;2.80;;;25.60;44.10;;;;;;5050170;28;20465;-87
2022/03/03 05:31:37;;;;;;;3.57;3.27;;;25.60;44.20;;;;;;5047503;28;20433;-86
2022/03/03 05:34:04;;;;;;;3.50;3.30;;;25.60;44.20;;;;;;5046496;28;20445;-87
2022/03/03 05:36:31;;;;;;;3.60;3.40;;;25.60;44.20;;;;;;5048569;28;20485;-87
2022/03/03 05:38:59;;;;;;;3.17;2.97;;;25.60;44.10;;;;;;5043826;28;20435;-87
2022/03/03 05:41:25;;;;;;;3.33;3.13;;;25.60;44.10;;;;;;5045254;28;20449;-87
2022/03/03 05:43:52;;;;;;;3.60;3.30;;;25.60;44.10;;;;;;5044803;28;20438;-86
2022/03/03 05:46:21;;;;;;;3.60;3.30;;;25.60;44.10;;;;;;5044160;28;20433;-86
2022/03/03 05:48:49;;;;;;;3.70;3.40;;;25.70;44.20;;;;;;5046240;28;20449;-87
2022/03/03 05:51:15;;;;;;;3.40;3.20;;;25.60;44.10;;;;;;5045409;28;20475;-86
2022/03/03 05:53:42;;;;;;;4.23;3.93;;;25.70;44.10;;;;;;5047195;28;20441;-87
2022/03/03 05:56:10;;;;;;;3.50;3.20;;;25.70;44.00;;;;;;5045003;28;20482;-87
2022/03/03 05:58:42;;;;;;;3.87;3.57;;;25.80;44.20;;;;;;5043244;28;20922;-86
2022/03/03 06:01:11;;;;;;;3.57;3.27;;;25.70;44.00;;;;;;5044506;28;20507;-87
2022/03/03 06:03:40;;;;;;;3.27;3.07;;;25.70;44.00;;;;;;5047967;28;20431;-86
2022/03/03 06:06:15;;;;;;;3.23;3.03;;;25.70;44.60;;;;;;5043378;28;20984;-87
2022/03/03 06:08:51;;;;;;;3.53;3.23;;;25.70;44.10;;;;;;5044326;28;20465;-86
2022/03/03 06:11:21;;;;;;;3.90;3.60;;;25.70;44.20;;;;;;5042960;28;20820;-87
2022/03/03 06:13:49;;;;;;;3.90;3.60;;;25.70;44.20;;;;;;5045320;28;20432;-87
2022/03/03 06:16:19;;;;;;;4.20;3.80;;;25.70;44.20;;;;;;5047498;28;20497;-87
2022/03/03 06:18:49;;;;;;;3.23;3.00;;;25.70;44.20;;;;;;5052519;28;20497;-87
2022/03/03 06:21:16;;;;;;;3.77;3.50;;;25.70;44.20;;;;;;5053445;28;20437;-87
2022/03/03 06:23:43;;;;;;;3.83;3.53;;;25.70;44.10;;;;;;5054667;28;20466;-87
2022/03/03 06:26:14;;;;;;;4.07;3.77;;;25.70;44.10;;;;;;5055219;28;20430;-87
2022/03/03 06:28:41;;;;;;;3.60;3.40;;;25.80;44.00;;;;;;5055416;28;20448;-86
2022/03/03 06:31:08;;;;;;;3.83;3.53;;;25.80;44.00;;;;;;5055235;28;20438;-87
2022/03/03 06:33:35;;;;;;;3.63;3.37;;;26.00;44.20;;;;;;5055284;28;20441;-87
2022/03/03 06:36:04;;;;;;;3.97;3.63;;;25.80;44.10;;;;;;5040205;28;20494;-87
2022/03/03 06:38:32;;;;;;;3.37;3.17;;;25.80;44.00;;;;;;5035088;28;20453;-88
2022/03/03 06:40:58;;;;;;;3.80;3.50;;;25.80;44.00;;;;;;5035039;28;20439;-87
2022/03/03 06:43:29;;;;;;;3.97;3.67;;;25.90;44.10;;;;;;5037507;28;20442;-87
2022/03/03 06:45:56;;;;;;;3.43;3.23;;;25.90;44.10;;;;;;5043006;28;20508;-87
2022/03/03 06:48:23;;;;;;;3.63;3.43;;;25.90;44.20;;;;;;5034867;28;20467;-87
2022/03/03 06:50:52;;;;;;;3.40;3.10;;;25.90;44.20;;;;;;5034700;28;20949;-87
2022/03/03 06:53:27;;;;;;;4.50;3.87;;;25.90;44.20;;;;;;5034733;28;20447;-87
2022/03/03 06:55:58;;;;;;;3.83;3.53;;;25.90;44.10;;;;;;5034790;28;20493;-87
2022/03/03 06:58:26;;;;;;;3.30;3.10;;;25.90;44.20;;;;;;5034824;28;20435;-87
2022/03/03 07:00:53;;;;;;;3.97;3.67;;;26.00;44.20;;;;;;5034358;28;20442;-87
2022/03/03 07:03:21;;;;;;;3.30;3.10;;;26.00;44.10;;;;;;5034488;28;20450;-93
2022/03/03 07:05:48;;;;;;;6.00;5.50;;;26.00;44.20;;;;;;5034842;28;20864;-93
2022/03/03 07:08:16;;;;;;;5.23;4.83;;;26.00;42.20;;;;;;5034230;28;20439;-87
2022/03/03 07:10:46;;;;;;;5.97;4.77;;;25.90;43.10;;;;;;5034532;28;20439;-94
2022/03/03 07:13:16;;;;;;;4.13;3.83;;;25.90;42.60;;;;;;5036344;28;20443;-96
2022/03/03 07:15:53;;;;;;;5.43;3.80;;;25.90;43.80;;;;;;5040541;28;20482;-87
2022/03/03 07:18:24;;;;;;;4.37;4.07;;;26.00;44.00;;;;;;5034746;28;20451;-87
2022/03/03 07:21:02;;;;;;;4.23;3.93;;;26.00;44.00;;;;;;5034502;28;20821;-88
2022/03/03 07:23:36;;;;;;;4.20;3.90;;;26.00;44.10;;;;;;5024180;28;20443;-89
2022/03/03 07:26:07;;;;;;;8.50;4.20;;;26.00;44.10;;;;;;5033629;28;20453;-87
2022/03/03 07:28:34;;;;;;;4.93;4.53;;;26.00;44.10;;;;;;5034053;28;20451;-88
2022/03/03 07:31:02;;;;;;;3.80;3.50;;;26.00;44.10;;;;;;5033902;28;20453;-87
2022/03/03 07:33:44;;;;;;;4.43;3.77;;;26.00;44.10;;;;;;5034067;28;20449;-87
2022/03/03 07:36:14;;;;;;;4.60;4.20;;;26.00;44.00;;;;;;5034024;28;20490;-87
2022/03/03 07:38:41;;;;;;;4.07;3.70;;;26.00;43.90;;;;;;5033930;28;20450;-88
2022/03/03 07:41:11;;;;;;;4.37;3.80;;;26.00;43.90;;;;;;5033839;28;20438;-88
2022/03/03 07:43:37;;;;;;;4.13;3.80;;;26.10;44.00;;;;;;5033969;28;20439;-86
2022/03/03 07:46:04;;;;;;;3.73;3.43;;;26.00;44.00;;;;;;5033970;28;20451;-87
2022/03/03 07:48:33;;;;;;;3.83;3.60;;;26.00;43.90;;;;;;5033741;28;20458;-89
2022/03/03 07:51:01;;;;;;;4.33;3.93;;;26.00;44.00;;;;;;5038555;28;20469;-90
2022/03/03 07:53:28;;;;;;;4.40;4.00;;;26.10;43.90;;;;;;5033700;28;20818;-87
2022/03/03 07:56:04;;;;;;;4.13;3.83;;;26.10;43.90;;;;;;5033191;28;20485;-88
2022/03/03 07:58:37;;;;;;;3.83;3.43;;;26.10;43.70;;;;;;5050363;28;20445;-87
2022/03/03 08:01:05;;;;;;;3.93;3.63;;;26.10;43.60;;;;;;5053130;28;20449;-86
2022/03/03 08:03:33;;;;;;;4.50;4.20;;;26.20;43.60;;;;;;5053187;28;20438;-86
2022/03/03 08:06:04;;;;;;;6.17;3.90;;;26.10;43.50;;;;;;5053602;28;20806;-87
2022/03/03 08:08:32;;;;;;;5.97;4.40;;;26.20;43.60;;;;;;5053572;28;20537;-86
2022/03/03 08:11:02;;;;;;;4.10;3.70;;;26.20;43.30;;;;;;5053429;28;20472;-88
2022/03/03 08:13:31;;;;;;;4.27;3.97;;;26.30;43.50;;;;;;5053202;28;20437;-86
2022/03/03 08:15:59;;;;;;;4.47;4.17;;;26.40;43.80;;;;;;5053192;28;20481;-86
2022/03/03 08:18:32;;;;;;;5.90;4.10;;;26.40;43.50;;;;;;5053175;28;20466;-86
2022/03/03 08:21:00;;;;;;;4.70;4.30;;;26.40;43.90;;;;;;5053394;28;20797;-86
2022/03/03 08:23:27;;;;;;;4.27;3.93;;;26.40;43.60;;;;;;5053577;28;20515;-86
2022/03/03 08:25:55;;;;;;;7.80;4.03;;;26.50;43.70;;;;;;5053419;28;20441;-85
2022/03/03 08:28:24;;;;;;;4.10;3.70;;;26.60;43.80;;;;;;5053488;28;20637;-86
2022/03/03 08:30:56;;;;;;;4.33;3.93;;;26.60;43.80;;;;;;5053315;28;20811;-86
2022/03/03 08:33:36;;;;;;;3.90;3.60;;;26.70;43.80;;;;;;5053190;28;20793;-88
2022/03/03 08:36:06;;;;;;;4.47;4.07;;;26.70;43.70;;;;;;5053355;28;20560;-85
2022/03/03 08:38:35;;;;;;;3.97;3.40;;;26.80;43.70;;;;;;5053286;28;20446;-86
2022/03/03 08:41:03;;;;;;;3.70;3.43;;;26.80;43.70;;;;;;5053769;28;20438;-86
2022/03/03 08:43:32;;;;;;;4.27;3.97;;;26.80;43.70;;;;;;5057471;28;20468;-85
2022/03/03 08:46:02;;;;;;;4.73;4.30;;;27.10;43.80;;;;;;5056958;28;20458;-84
2022/03/03 08:48:31;;;;;;;4.27;3.97;;;27.10;43.60;;;;;;5056820;28;20871;-86
2022/03/03 08:50:59;;;;;;;4.97;4.37;;;27.20;43.30;;;;;;5056692;28;20482;-89
2022/03/03 08:53:26;;;;;;;7.80;7.07;;;27.70;42.10;;;;;;5056555;28;20453;-85
2022/03/03 08:55:54;;;;;;;8.63;6.97;;;28.20;38.00;;;;;;5056707;28;20437;-85
2022/03/03 08:58:22;;;;;;;9.07;5.43;;;28.60;38.30;;;;;;5057221;28;20430;-85
2022/03/03 09:00:50;;;;;;;4.63;4.20;;;29.10;39.80;;;;;;5057127;28;20437;-85
2022/03/03 09:03:21;;;;;;;4.77;4.37;;;29.80;40.10;;;;;;5056993;28;20822;-85
2022/03/03 09:05:50;;;;;;;8.83;5.10;;;30.40;39.80;;;;;;5056804;28;20936;-85
2022/03/03 09:08:17;;;;;;;10.50;9.50;;;31.00;39.40;;;;;;5054056;28;20533;-85
2022/03/03 09:10:44;;;;;;;10.70;9.60;;;31.20;34.90;;;;;;5055891;28;20449;-84
2022/03/03 09:13:11;;;;;;;11.00;9.97;;;31.10;33.60;;;;;;5055952;28;20442;-84
2022/03/03 09:15:37;;;;;;;12.20;10.40;;;31.00;33.20;;;;;;5055707;28;20446;-85
2022/03/03 09:18:05;;;;;;;11.77;10.67;;;30.90;32.90;;;;;;5046654;28;20491;-85
2022/03/03 09:20:34;;;;;;;11.00;9.97;;;30.90;32.90;;;;;;5047678;28;20441;-85
2022/03/03 09:23:01;;;;;;;10.83;9.93;;;30.80;32.90;;;;;;5055622;28;20472;-85
2022/03/03 09:25:28;;;;;;;10.07;9.20;;;30.80;32.70;;;;;;5055262;28;20446;-85
2022/03/03 09:27:55;;;;;;;10.73;9.80;;;30.70;32.50;;;;;;5055650;28;20448;-85
2022/03/03 09:30:22;;;;;;;10.63;9.53;;;30.60;32.50;;;;;;5055992;28;20958;-85
2022/03/03 09:32:49;;;;;;;9.87;9.07;;;30.50;32.40;;;;;;5056286;28;20441;-85
2022/03/03 09:35:16;;;;;;;10.87;9.97;;;30.40;32.50;;;;;;5056296;28;20441;-85
2022/03/03 09:37:44;;;;;;;11.20;10.20;;;30.10;32.70;;;;;;5056057;28;20536;-84
2022/03/03 09:40:11;;;;;;;11.00;10.10;;;29.80;33.00;;;;;;5056191;28;20804;-85
2022/03/03 09:42:38;;;;;;;11.37;8.40;;;29.30;33.30;;;;;;5056137;28;20438;-85
2022/03/03 09:45:07;;;;;;;11.70;10.53;;;28.80;33.90;;;;;;5055987;28;20442;-84
2022/03/03 09:47:34;;;;;;;11.90;10.67;;;28.40;34.10;;;;;;5055821;28;20476;-85
2022/03/03 09:50:01;;;;;;;10.60;9.60;;;28.00;33.90;;;;;;5056032;28;20442;-85
2022/03/03 09:52:30;;;;;;;10.97;10.00;;;27.80;34.30;;;;;;5055527;28;20465;-85
2022/03/03 09:54:58;;;;;;;12.20;9.80;;;27.60;34.10;;;;;;5055947;28;20527;-84
2022/03/03 09:57:26;;;;;;;11.20;10.07;;;27.60;33.90;;;;;;5055751;28;20992;-86
2022/03/03 09:59:53;;;;;;;10.23;9.33;;;27.60;33.80;;;;;;5055783;28;20487;-87
2022/03/03 10:02:20;;;;;;;11.67;10.50;;;27.50;34.30;;;;;;5055634;28;20446;-85
2022/03/03 10:04:47;;;;;;;9.97;9.07;;;27.30;34.10;;;;;;5055633;28;20532;-86
2022/03/03 10:07:14;;;;;;;11.23;10.23;;;27.20;34.50;;;;;;5055770;28;20437;-85
2022/03/03 10:12:26;;;;;;;11.80;9.07;;;27.00;35.20;;;;;;5055526;28;20488;-84
2022/03/03 10:14:57;;;;;;;10.10;9.07;;;26.90;35.00;;;;;;5055502;28;20438;-85
2022/03/03 10:17:35;;;;;;;9.53;8.83;;;26.80;35.00;;;;;;5055517;28;20917;-83
2022/03/03 10:20:04;;;;;;;9.67;8.67;;;26.70;35.10;;;;;;5055401;28;20434;-86
2022/03/03 10:22:42;;;;;;;9.67;8.63;;;26.50;34.80;;;;;;5055685;28;20533;-84
2022/03/03 10:25:11;;;;;;;9.80;8.90;;;26.50;35.10;;;;;;5055488;28;20803;-85
2022/03/03 10:27:39;;;;;;;9.13;8.33;;;26.40;35.40;;;;;;5055141;28;20962;-84
2022/03/03 10:30:08;;;;;;;9.73;8.87;;;26.40;35.10;;;;;;5055233;28;20438;-85
2022/03/03 10:32:35;;;;;;;9.67;8.87;;;26.30;35.00;;;;;;5055026;28;20442;-84
2022/03/03 10:35:12;;;;;;;8.97;8.17;;;26.30;35.20;;;;;;5055010;28;20438;-85
2022/03/03 10:37:40;;;;;;;9.70;8.90;;;26.20;35.20;;;;;;5054917;28;20481;-84
2022/03/03 10:40:11;;;;;;;9.33;8.53;;;26.20;34.90;;;;;;5055059;28;20449;-85
2022/03/03 10:42:43;;;;;;;8.33;7.60;;;26.20;34.60;;;;;;5054909;28;20496;-85
2022/03/03 10:45:11;;;;;;;9.70;8.80;;;26.20;34.80;;;;;;5055263;28;20446;-88
2022/03/03 10:47:39;;;;;;;9.70;8.90;;;26.20;34.80;;;;;;5054861;28;20458;-89
2022/03/03 10:50:06;;;;;;;9.07;8.37;;;26.10;35.30;;;;;;5055106;28;20536;-84
2022/03/03 10:52:40;;;;;;;9.83;8.93;;;26.10;35.10;;;;;;5034834;28;20435;-85
2022/03/03 10:55:12;;;;;;;11.30;8.97;;;26.10;35.20;;;;;;5034758;28;20435;-84
2022/03/03 10:57:42;;;;;;;9.77;9.00;;;26.20;35.40;;;;;;5034958;28;20482;-85
2022/03/03 11:00:16;;;;;;;9.57;8.77;;;26.20;35.80;;;;;;5035142;28;20443;-85
2022/03/03 11:02:45;;;;;;;8.83;8.13;;;26.20;35.30;;;;;;5034356;28;20803;-84
2022/03/03 11:05:13;;;;;;;9.57;8.67;;;26.20;35.20;;;;;;5034000;28;20477;-84
2022/03/03 11:07:42;;;;;;;9.13;8.33;;;26.20;35.20;;;;;;5034708;28;20453;-84
2022/03/03 11:10:10;;;;;;;8.23;7.53;;;26.20;35.20;;;;;;5034690;28;20922;-85
2022/03/03 11:12:37;;;;;;;8.30;7.60;;;26.30;35.10;;;;;;5034303;28;20438;-84
2022/03/03 11:15:07;;;;;;;9.17;8.27;;;26.30;35.30;;;;;;5035399;28;20443;-84
2022/03/03 11:17:34;;;;;;;10.47;7.97;;;26.30;35.40;;;;;;5034355;28;20498;-88
2022/03/03 11:20:02;;;;;;;9.53;8.73;;;26.40;35.20;;;;;;5034412;28;20446;-85
2022/03/03 11:22:31;;;;;;;7.73;7.13;;;26.40;35.40;;;;;;5045794;28;20451;-84
2022/03/03 11:25:00;;;;;;;8.17;7.37;;;26.40;35.60;;;;;;5034037;28;21036;-84
2022/03/03 11:27:34;;;;;;;8.43;7.83;;;26.40;35.40;;;;;;5034328;28;20442;-85
2022/03/03 11:30:26;;;;;;;8.50;7.80;;;26.40;35.00;;;;;;5034017;28;20870;-85
2022/03/03 11:33:22;;;;;;;8.07;7.47;;;26.50;34.80;;;;;;5033833;28;20945;-84
2022/03/03 11:35:50;;;;;;;9.83;7.20;;;26.40;35.20;;;;;;5033967;28;20446;-85
2022/03/03 11:38:17;;;;;;;7.50;6.67;;;26.40;35.00;;;;;;5033946;28;21005;-84
2022/03/03 11:40:55;;;;;;;10.23;7.50;;;26.40;34.60;;;;;;5033724;28;20451;-85
2022/03/03 11:43:23;;;;;;;11.13;6.80;;;26.50;34.50;;;;;;5033776;28;20453;-84
2022/03/03 11:45:52;;;;;;;6.87;6.30;;;26.40;34.00;;;;;;5034097;28;20450;-84
2022/03/03 11:48:22;;;;;;;7.87;7.17;;;26.50;34.00;;;;;;5033514;28;20469;-84
2022/03/03 11:50:50;;;;;;;6.87;6.37;;;26.50;34.00;;;;;;5039217;28;20484;-84
2022/03/03 11:53:19;;;;;;;7.70;7.00;;;26.50;34.40;;;;;;5053583;28;20446;-84
2022/03/03 11:55:58;;;;;;;7.27;6.57;;;26.50;33.70;;;;;;5053661;28;20446;-84
2022/03/03 11:58:28;;;;;;;7.50;6.83;;;26.50;33.70;;;;;;5053717;28;20493;-84
2022/03/03 12:01:08;;;;;;;8.63;6.60;;;26.50;33.50;;;;;;5053793;28;20442;-85
2022/03/03 12:04:02;;;;;;;5.93;5.53;;;26.50;33.50;;;;;;5054469;28;20444;-88
2022/03/03 12:06:40;;;;;;;7.77;6.30;;;26.40;34.50;;;;;;5053954;28;20524;-85
2022/03/03 12:09:18;;;;;;;6.63;6.03;;;26.50;33.30;;;;;;5053501;28;20521;-84
2022/03/03 12:11:45;;;;;;;7.07;6.47;;;26.50;33.50;;;;;;5053552;28;20939;-84
2022/03/03 12:14:31;;;;;;;6.90;6.30;;;26.50;34.00;;;;;;5053623;28;20441;-89
2022/03/03 12:17:31;;;;;;;4.80;4.50;;;26.50;34.40;;;;;;5052796;28;20469;-86
2022/03/03 12:20:34;;;;;;;6.50;6.00;;;26.60;37.00;;;;;;5053669;28;20445;-85
2022/03/03 12:23:05;;;;;;;4.17;3.87;;;26.40;36.10;;;;;;5054010;28;20434;-94
2022/03/03 12:25:59;;;;;;;5.97;5.57;;;26.40;37.60;;;;;;5053298;28;20449;-91
2022/03/03 12:28:27;;;;;;;5.03;4.40;;;26.40;36.60;;;;;;5053663;28;20474;-87
2022/03/03 12:30:55;;;;;;;3.90;3.60;;;26.40;37.20;;;;;;5053095;28;20437;-84
2022/03/03 12:33:24;;;;;;;6.03;3.73;;;26.60;38.10;;;;;;5053470;28;20437;-85
2022/03/03 12:35:58;;;;;;;3.67;3.33;;;26.70;37.70;;;;;;5053123;28;20438;-85
2022/03/03 12:38:25;;;;;;;3.70;3.40;;;26.80;37.80;;;;;;5053429;28;20485;-85
2022/03/03 12:40:52;;;;;;;3.40;3.20;;;26.90;38.00;;;;;;5053393;28;20445;-85
2022/03/03 12:43:19;;;;;;;3.87;3.53;;;27.00;38.10;;;;;;5052879;28;20557;-85
2022/03/03 12:45:48;;;;;;;3.60;3.30;;;27.10;38.20;;;;;;5052946;28;20438;-85
2022/03/03 12:48:27;;;;;;;3.80;3.57;;;27.10;38.20;;;;;;5053009;28;20983;-85
2022/03/03 12:50:59;;;;;;;3.37;3.07;;;27.20;38.30;;;;;;5052945;28;20480;-85
2022/03/03 12:53:34;;;;;;;4.07;3.70;;;27.20;38.40;;;;;;5053472;28;20437;-85
2022/03/03 12:56:01;;;;;;;4.03;3.73;;;27.30;38.50;;;;;;5053109;28;20962;-85
2022/03/03 12:58:31;;;;;;;3.60;3.30;;;27.30;38.60;;;;;;5053150;28;20493;-85